• Join FlightAware (Why Join?)
  • Login
  • US Flag 
10:43PM EDT


 

Airport Tracker/Info


-or-


 

Live Flight TrackerFlight Track Log ✈ SWA542 ✈ 14-Apr-2013 ✈ KMCO - KSAT

Flight Track Log - Related Links

Times and Time Zones

All times are in EDT time to prevent confusion due to time zone crossing. See the SWA542 flight status page for this flight to view local times or setup timezone preferences in your user account.

Time Position Orientation Groundspeed Altitude Reporting Facility
EDT Latitude Longitude Course Direction KTS MPH feet Rate Location/Type
11:22AM 28.4167 -81.3167 210° Southwest 155 178 800  Level Orlando TRACON
11:23AM 28.3667 -81.3500 210° Southwest 216 249 3,100 2,280 Climbing Orlando TRACON
11:24AM 28.3167 -81.3833 210° Southwest 262 302 5,700 3,060 Climbing Orlando TRACON
11:25AM 28.3167 -81.4833 270° West 291 335 9,300 3,060 Climbing Orlando TRACON
11:28AM 28.3219 -81.7206 272° West 356 410 15,800 2,820 Climbing Jacksonville Center
11:29AM 28.3106 -81.8364 264° West 369 425 18,600 2,700 Climbing Jacksonville Center
11:30AM 28.2883 -81.9519 258° West 374 430 21,200 2,280 Climbing Jacksonville Center
11:31AM 28.2664 -82.0725 258° West 379 436 23,200 2,100 Climbing Jacksonville Center
11:32AM 28.2442 -82.1975 259° West 394 453 25,500 2,220 Climbing Jacksonville Center
11:33AM 28.2175 -82.3178 256° West 399 459 27,700 2,280 Climbing Jacksonville Center
11:34AM 28.1950 -82.4428 258° West 399 459 30,100 2,280 Climbing Jacksonville Center
11:35AM 28.1725 -82.5606 258° West 392 451 32,300 1,920 Climbing Jacksonville Center
11:37AM 28.1181 -82.8328 257° West 374 430 36,600 1,680 Climbing Miami Center
11:38AM 28.0947 -82.9397 256° West 362 417 38,000 660 Climbing Miami Center
11:39AM 28.0778 -83.0422 259° West 357 411 38,000  Level Miami Center
11:40AM 28.0544 -83.1467 256° West 351 404 38,000  Level Miami Center
11:41AM 28.0581 -83.2528 272° West 337 388 38,000  Level Miami Center
11:42AM 28.0783 -83.3572 282° West 343 395 38,000  Level Miami Center
11:43AM 28.1008 -83.4619 284° West 348 400 38,000  Level Miami Center
11:44AM 28.1167 -83.5689 280° West 348 400 38,000  Level Miami Center
11:45AM 28.1389 -83.6711 284° West 348 400 38,000  Level Miami Center
11:46AM 28.1569 -83.7758 281° West 343 395 38,000  Level Miami Center
11:47AM 28.1767 -83.8831 282° West 343 395 38,000  Level Miami Center
11:47AM 28.1856 -83.9264 283° West 346 398 38,000  Level Jacksonville Center
11:48AM 28.2056 -84.0278 283° West 341 392 38,000  Level Jacksonville Center
11:49AM 28.2233 -84.1364 281° West 336 387 38,000  Level Jacksonville Center
11:50AM 28.2431 -84.2425 282° West 342 394 38,000  Level Jacksonville Center
11:51AM 28.2628 -84.3489 282° West 342 394 38,000  Level Jacksonville Center
11:52AM 28.2822 -84.4578 281° West 348 400 38,000  Level Jacksonville Center
11:53AM 28.3039 -84.5689 283° West 362 417 38,000  Level Jacksonville Center
11:54AM 28.3233 -84.6753 282° West 357 411 38,000  Level Jacksonville Center
11:55AM 28.3428 -84.7817 282° West 351 404 38,000  Level Jacksonville Center
11:56AM 28.3619 -84.8928 281° West 351 404 38,000  Level Jacksonville Center
11:57AM 28.3811 -84.9994 282° West 358 412 38,000  Level Jacksonville Center
11:58AM 28.4000 -85.1131 281° West 353 406 38,000  Level Jacksonville Center
11:59AM 28.4189 -85.2219 281° West 353 406 38,000  Level Jacksonville Center
12:00PM 28.4400 -85.3264 283° West 353 406 38,000  Level Jacksonville Center
12:01PM 28.4567 -85.4331 280° West 353 406 38,000  Level Jacksonville Center
12:02PM 28.4753 -85.5469 281° West 353 406 38,000  Level Jacksonville Center
12:03PM 28.4958 -85.6514 283° West 353 406 38,000  Level Jacksonville Center
12:04PM 28.5122 -85.7628 280° West 353 406 38,000  Level Jacksonville Center
12:05PM 28.5328 -85.8697 282° West 353 406 38,000  Level Jacksonville Center
12:06PM 28.5489 -85.9789 280° West 353 406 38,000  Level Jacksonville Center
12:07PM 28.5692 -86.0906 282° West 353 406 38,000  Level Jacksonville Center
12:08PM 28.5875 -86.1953 281° West 353 406 38,000  Level Jacksonville Center
12:09PM 28.5825 -86.2992 267° West 345 397 38,000  Level Jacksonville Center
12:10PM 28.5797 -86.4100 268° West 345 397 38,000  Level Jacksonville Center
12:11PM 28.5744 -86.5186 267° West 345 397 38,000  Level Jacksonville Center
12:12PM 28.5714 -86.6247 268° West 345 397 38,000  Level Jacksonville Center
12:13PM 28.5661 -86.7333 267° West 345 397 38,000  Level Jacksonville Center
12:14PM 28.5669 -86.8444 271° West 345 397 38,000  Level Jacksonville Center
12:15PM 28.5658 -86.9508 269° West 345 397 38,000 -60 Level Jacksonville Center
12:16PM 28.5625 -87.0569 268° West 345 397 37,900  Descending Jacksonville Center
12:17PM 28.5714 -87.1661 275° West 345 397 38,000  Climbing Jacksonville Center
12:18PM 28.5761 -87.2703 273° West 345 397 38,000  Level Jacksonville Center
12:21PM 28.5833 -87.5119 272° West 349 402 38,000  Level Houston Center
12:22PM 28.5886 -87.6247 273° West 354 407 38,000  Level Houston Center
12:23PM 28.5953 -87.7394 274° West 360 414 38,000  Level Houston Center
12:24PM 28.6022 -87.8756 273° West 360 414 38,000  Level Houston Center
12:25PM 28.6094 -87.9900 274° West 360 414 38,000  Level Houston Center
12:26PM 28.6175 -88.1056 275° West 359 413 38,000  Level Houston Center
12:27PM 28.6236 -88.2186 274° West 359 413 38,000  Level Houston Center
12:28PM 28.6311 -88.3328 274° West 360 414 38,000  Level Houston Center
12:29PM 28.6378 -88.4456 274° West 358 412 38,000  Level Houston Center
12:30PM 28.6475 -88.5828 275° West 359 413 38,000  Level Houston Center
12:31PM 28.6564 -88.6953 275° West 357 411 38,000  Level Houston Center
12:32PM 28.6653 -88.8103 275° West 365 420 38,000  Level Houston Center
12:33PM 28.6753 -88.9247 276° West 363 418 38,000  Level Houston Center
12:34PM 28.6844 -89.0389 275° West 364 419 38,000  Level Houston Center
12:35PM 28.6939 -89.1550 275° West 365 420 38,000  Level Houston Center
12:36PM 28.7028 -89.2706 275° West 366 421 38,000  Level Houston Center
12:37PM 28.7097 -89.4081 273° West 363 418 38,000  Level Houston Center
12:38PM 28.7156 -89.5236 273° West 365 420 38,000  Level Houston Center
12:39PM 28.7236 -89.6428 274° West 374 430 38,000  Level Houston Center
12:40PM 28.7311 -89.7581 274° West 370 426 38,000  Level Houston Center
12:41PM 28.7503 -89.8758 281° West 375 432 38,000  Level Houston Center
12:42PM 28.7728 -89.9944 282° West 381 438 38,000  Level Houston Center
12:43PM 28.7986 -90.1356 282° West 381 438 38,000  Level Houston Center
12:45PM 28.8208 -90.2547 282° West 383 441 38,000  Level Houston Center
12:46PM 28.8428 -90.3747 282° West 385 443 38,000  Level Houston Center
12:47PM 28.8656 -90.4931 282° West 383 441 38,000  Level Houston Center
12:48PM 28.8864 -90.6119 281° West 382 440 38,000  Level Houston Center
12:49PM 28.9083 -90.7300 282° West 380 437 38,000  Level Houston Center
12:50PM 28.9286 -90.8450 281° West 373 429 38,000  Level Houston Center
12:51PM 28.9531 -90.9839 281° West 371 427 38,000  Level Houston Center
12:52PM 28.9753 -91.1031 282° West 382 440 38,000  Level Houston Center
12:53PM 28.9964 -91.2236 281° West 388 447 38,000  Level Houston Center
12:54PM 29.0178 -91.3436 282° West 386 444 38,000  Level Houston Center
12:55PM 29.0386 -91.4647 281° West 388 447 38,000  Level Houston Center
12:56PM 29.0592 -91.5850 281° West 387 445 38,000  Level Houston Center
12:57PM 29.0839 -91.7289 281° West 384 442 38,000  Level Houston Center
12:58PM 29.1064 -91.8544 282° West 391 450 38,000  Level Houston Center
12:59PM 29.1275 -91.9733 282° West 384 442 38,000  Level Houston Center
01:00PM 29.1475 -92.0917 281° West 380 437 38,000  Level Houston Center
01:01PM 29.1672 -92.2103 281° West 380 437 38,000  Level Houston Center
01:02PM 29.1878 -92.3275 281° West 378 435 38,000  Level Houston Center
01:03PM 29.2064 -92.4461 280° West 377 434 38,000  Level Houston Center
01:04PM 29.2300 -92.5850 281° West 374 430 38,000  Level Houston Center
01:05PM 29.2508 -92.7019 282° West 375 432 38,000  Level Houston Center
01:06PM 29.2703 -92.8197 281° West 376 433 38,000  Level Houston Center
01:07PM 29.2897 -92.9400 281° West 382 440 38,000  Level Houston Center
01:08PM 29.3086 -93.0572 280° West 376 433 38,000  Level Houston Center
01:09PM 29.3275 -93.1769 280° West 380 437 38,000  Level Houston Center
01:10PM 29.3511 -93.3181 281° West 376 433 38,000  Level Houston Center
01:11PM 29.3706 -93.4383 281° West 382 440 38,000  Level Houston Center
01:12PM 29.3897 -93.5592 280° West 384 442 38,000  Level Houston Center
01:13PM 29.4083 -93.6778 280° West 380 437 38,000  Level Houston Center
01:15PM 29.4267 -93.7983 280° West 382 440 38,000  Level Houston Center
01:16PM 29.4456 -93.9197 280° West 385 443 38,000  Level Houston Center
01:17PM 29.4639 -94.0417 280° West 386 444 38,000  Level Houston Center
01:18PM 29.4861 -94.1844 280° West 392 451 38,000 240 Level Houston Center
01:19PM 29.5058 -94.3086 280° West 395 455 38,600 960 Climbing Houston Center
01:20PM 29.5250 -94.4303 280° West 389 448 40,000 660 Climbing Houston Center
01:21PM 29.5431 -94.5489 280° West 380 437 40,000  Level Houston Center
01:22PM 29.5606 -94.6697 279° West 383 441 40,000  Level Houston Center
01:23PM 29.5828 -94.8142 280° West 383 441 40,000  Level Houston Center
01:24PM 29.6011 -94.9339 280° West 384 442 40,000  Level Houston Center
01:25PM 29.6200 -95.0647 279° West 387 445 40,000  Level Houston Center
01:26PM 29.6378 -95.1875 279° West 390 449 40,000  Level Houston Center
01:27PM 29.6550 -95.3078 279° West 384 442 40,000  Level Houston Center
01:28PM 29.6742 -95.4347 280° West 388 447 40,000  Level Houston Center
01:29PM 29.6908 -95.5539 279° West 381 438 40,000  Level Houston Center
01:30PM 29.7086 -95.6739 280° West 380 437 40,000  Level Houston Center
01:31PM 29.7275 -95.8214 278° West 389 448 40,000  Level Houston Center
01:32PM 29.7453 -95.9442 279° West 391 450 40,000  Level Houston Center
01:33PM 29.7600 -96.0542 279° West 393 452 40,000  Level Houston Center
01:34PM 29.7808 -96.2017 279° West 392 451 40,000  Level Houston Center
01:35PM 29.7892 -96.3267 274° West 393 452 40,000 -60 Level Houston Center
01:36PM 29.7986 -96.4486 275° West 388 447 39,900 -1,080 Descending Houston Center
01:37PM 29.8078 -96.5672 275° West 379 436 37,800 -2,280 Descending Houston Center
01:38PM 29.8161 -96.6858 275° West 375 432 35,300 -2,880 Descending Houston Center
01:39PM 29.8272 -96.8383 275° West 403 464 31,900 -2,760 Descending Houston Center
01:40PM 29.8369 -96.9689 275° West 410 472 29,600 -2,280 Descending Houston Center
01:41PM 29.8450 -97.0933 274° West 397 457 27,300 -2,160 Descending Houston Center
01:42PM 29.8539 -97.2125 275° West 380 437 25,200 -2,040 Descending Houston Center
01:43PM 29.8617 -97.3275 274° West 366 421 23,100 -2,640 Descending Houston Center
01:45PM 29.8969 -97.4567 288° West 363 418 19,400 -3,540 Descending Houston Center
01:45PM 29.9222 -97.5208 294° West 374 430 16,900 -4,680 Descending Houston Center
01:46PM 29.9381 -97.5697 291° West 375 432 15,200 -2,940 Descending Houston Center
01:47PM 29.9253 -97.6889 263° West 376 433 13,000 -1,080 Descending Houston Center
01:48PM 29.9044 -97.8128 259° West 363 418 13,000  Level Houston Center
01:49PM 29.8714 -97.9239 251° West 370 426 13,000 -600 Level Houston Center
01:50PM 29.8231 -98.0375 244° Southwest 368 423 11,900 -1,080 Descending Houston Center
01:50PM 29.8231 -98.0375 244° Southwest 369 425 11,900 -1,200 Level Houston Center
01:51PM 29.7786 -98.1442 244° Southwest 369 425 10,700 -960 Descending Houston Center
01:52PM 29.7392 -98.2364 244° Southwest 322 371 10,000 -900 Descending Houston Center
01:52PM 29.7150 -98.2939 244° Southwest 276 318 9,200 -1,260 Descending Houston Center
01:53PM 29.7014 -98.3242 243° Southwest 286 329 8,700 -1,320 Descending Houston Center
01:54PM 29.6686 -98.4014 244° Southwest 272 313 7,400 -1,140 Descending Houston Center
01:55PM 29.6600 -98.4794 263° West 248 285 6,400 -960 Descending Houston Center
01:56PM 29.6933 -98.5397 302° West 223 257 5,500 -960 Descending Houston Center
01:57PM 29.7142 -98.5828 299° West 204 235 4,700 -1,080 Descending Houston Center
01:57PM 29.7083 -98.5994 248° West 201 231 4,400 -1,020 Descending Houston Center
01:58PM 29.6800 -98.6228 216° Southwest 197 227 3,800 -900 Descending Houston Center
01:58PM 29.6614 -98.6308 201° Southwest 196 226 3,500 -900 Descending Houston Center
01:59PM 29.6344 -98.6067 142° Southeast 203 234 2,900 -540 Descending Houston Center
01:59PM 29.6219 -98.5872 126° Southeast 192 221 3,000 -540 Climbing Houston Center
02:00PM 29.5986 -98.5606 135° Southeast 173 199 2,400 -780 Descending Houston Center
02:00PM 29.5881 -98.5431 125° Southeast 175 201 2,200 -660 Descending Houston Center
02:00PM 29.5747 -98.5272 134° Southeast 155 178 1,800 -780 Descending Houston Center
02:01PM 29.5614 -98.5089 130° Southeast 147 169 1,400 -900 Descending Houston Center
02:01PM 29.5464 -98.4922 136° Southeast 137 158 900 -600 Descending Houston Center
02:02PM 29.5344 -98.4767 131° Southeast 139 160 800 -240 Descending Houston Center
02:04PM 29.5333 -98.4667 16° North  Level FlightAware Approximate
02:11PM 29.5340 -98.4691 16° North  Level Estimated